createdAt,value
2023-07-08T00:00:59.515Z,99.90
2023-07-08T00:03:27.563Z,99.90
2023-07-08T00:05:57.141Z,99.90
2023-07-08T00:08:24.966Z,99.90
2023-07-08T00:10:54.214Z,99.90
2023-07-08T00:13:22.055Z,99.90
2023-07-08T00:15:49.985Z,99.90
2023-07-08T00:18:18.883Z,99.90
2023-07-08T00:20:47.947Z,99.90
2023-07-08T00:23:15.958Z,99.90
2023-07-08T00:25:43.927Z,99.90
2023-07-08T00:28:13.216Z,99.90
2023-07-08T00:30:41.096Z,99.90
2023-07-08T00:33:09.134Z,99.90
2023-07-08T00:35:38.258Z,99.90
2023-07-08T00:38:13.553Z,99.90
2023-07-08T00:40:41.368Z,99.90
2023-07-08T00:43:10.385Z,99.90
2023-07-08T00:45:53.507Z,99.90
2023-07-08T00:48:32.263Z,99.90
2023-07-08T00:51:00.295Z,99.90
2023-07-08T00:53:29.984Z,99.90
2023-07-08T00:56:00.022Z,99.90
2023-07-08T00:58:31.922Z,99.90
2023-07-08T01:01:01.350Z,99.90
2023-07-08T01:03:29.954Z,99.90
2023-07-08T01:06:00.356Z,99.90
2023-07-08T01:08:31.898Z,99.90
2023-07-08T01:11:02.748Z,99.90
2023-07-08T01:13:32.760Z,99.90
2023-07-08T01:16:02.523Z,99.90
2023-07-08T01:18:30.468Z,99.90
2023-07-08T01:21:02.190Z,99.90
2023-07-08T01:23:31.516Z,99.90
2023-07-08T01:25:59.435Z,99.90
2023-07-08T01:28:27.364Z,99.90
2023-07-08T01:30:55.287Z,99.90
2023-07-08T01:33:25.235Z,99.90
2023-07-08T01:35:53.787Z,99.90
2023-07-08T01:38:25.042Z,99.90
2023-07-08T01:40:55.019Z,99.90
2023-07-08T01:43:22.895Z,99.90
2023-07-08T01:45:51.129Z,99.90
2023-07-08T01:48:21.264Z,99.90
2023-07-08T01:50:51.075Z,99.90
2023-07-08T01:53:22.456Z,99.90
2023-07-08T01:55:50.320Z,99.90
2023-07-08T01:58:19.695Z,99.90
2023-07-08T02:00:49.536Z,99.90
2023-07-08T02:03:17.416Z,99.90
2023-07-08T02:05:45.283Z,99.90
2023-07-08T02:08:13.148Z,99.90
2023-07-08T02:10:41.740Z,99.90
2023-07-08T02:13:09.567Z,99.90
2023-07-08T02:15:38.783Z,99.90
2023-07-08T02:18:06.631Z,99.90
2023-07-08T02:20:34.511Z,99.90
2023-07-08T02:23:02.319Z,99.90
2023-07-08T02:25:30.450Z,99.90
2023-07-08T02:27:58.537Z,99.90
2023-07-08T02:30:26.460Z,99.90
2023-07-08T02:32:58.948Z,99.90
2023-07-08T02:35:27.626Z,99.90
2023-07-08T02:37:55.651Z,99.90
2023-07-08T02:40:23.901Z,99.90
2023-07-08T02:42:51.718Z,99.90
2023-07-08T02:45:19.656Z,99.90
2023-07-08T02:47:47.534Z,99.90
2023-07-08T02:50:18.200Z,99.90
2023-07-08T02:52:46.121Z,99.90
2023-07-08T02:55:13.988Z,99.90
2023-07-08T02:57:41.795Z,99.90
2023-07-08T03:00:10.127Z,99.90
2023-07-08T03:02:38.008Z,99.90
2023-07-08T03:05:06.813Z,99.90
2023-07-08T03:07:36.101Z,99.90
2023-07-08T03:10:04.617Z,99.90
2023-07-08T03:12:32.499Z,99.90
2023-07-08T03:15:00.325Z,99.90
2023-07-08T03:17:28.177Z,99.90
2023-07-08T03:19:56.020Z,99.90
2023-07-08T03:22:23.978Z,99.90
2023-07-08T03:24:53.109Z,99.90
2023-07-08T03:27:21.836Z,99.90
2023-07-08T03:29:49.646Z,99.90
2023-07-08T03:32:17.521Z,99.90
2023-07-08T03:34:45.391Z,99.90
2023-07-08T03:37:13.254Z,99.90
2023-07-08T03:39:41.074Z,99.90
2023-07-08T03:42:11.209Z,99.90
2023-07-08T03:44:39.116Z,99.90
2023-07-08T03:47:06.961Z,99.90
2023-07-08T03:49:34.834Z,99.90
2023-07-08T03:52:02.838Z,99.90
2023-07-08T03:54:30.653Z,99.90
2023-07-08T03:56:58.578Z,99.90
2023-07-08T03:59:27.776Z,99.90
2023-07-08T04:01:55.693Z,99.90
2023-07-08T04:04:23.963Z,99.90
2023-07-08T04:06:52.708Z,99.90
2023-07-08T04:09:20.649Z,99.90
2023-07-08T04:11:48.531Z,99.90
2023-07-08T04:14:16.378Z,99.90
2023-07-08T04:16:52.368Z,99.90
2023-07-08T04:19:20.695Z,99.90
2023-07-08T04:21:48.609Z,99.90
2023-07-08T04:24:17.463Z,99.90
2023-07-08T04:26:47.311Z,99.90
2023-07-08T04:29:16.198Z,99.90
2023-07-08T04:31:44.073Z,99.90
2023-07-08T04:34:13.434Z,99.90
2023-07-08T04:36:41.426Z,99.90
2023-07-08T04:39:09.708Z,99.90
2023-07-08T04:41:42.165Z,99.90
2023-07-08T04:44:11.546Z,99.90
2023-07-08T04:46:41.019Z,99.90
2023-07-08T04:49:10.556Z,99.90
2023-07-08T04:51:39.937Z,99.90
2023-07-08T04:54:07.988Z,99.90
2023-07-08T04:56:37.885Z,99.90
2023-07-08T04:59:06.131Z,99.90
2023-07-08T05:01:34.070Z,99.90
2023-07-08T05:04:02.033Z,99.90
2023-07-08T05:06:29.898Z,99.90
2023-07-08T05:09:00.219Z,99.90
2023-07-08T05:11:28.136Z,99.90
2023-07-08T05:13:56.142Z,99.90
2023-07-08T05:16:24.279Z,99.90
2023-07-08T05:18:52.217Z,99.90
2023-07-08T05:21:20.556Z,99.90
2023-07-08T05:23:50.214Z,99.90
2023-07-08T05:26:19.573Z,99.90
2023-07-08T05:28:47.475Z,99.90
2023-07-08T05:31:15.288Z,99.90
2023-07-08T05:33:43.101Z,99.90
2023-07-08T05:36:10.899Z,99.90
2023-07-08T05:38:39.312Z,99.90
2023-07-08T05:41:07.404Z,99.90
2023-07-08T05:43:36.562Z,99.90
2023-07-08T05:46:11.210Z,99.90
2023-07-08T05:48:40.879Z,99.90
2023-07-08T05:51:08.933Z,99.90
2023-07-08T05:53:36.765Z,99.90
2023-07-08T05:56:04.839Z,99.90
2023-07-08T05:58:32.699Z,99.90
2023-07-08T06:01:02.520Z,99.90
2023-07-08T06:03:30.821Z,99.90
2023-07-08T06:05:58.717Z,99.90
2023-07-08T06:08:26.592Z,99.90
2023-07-08T06:10:54.444Z,99.90
2023-07-08T06:13:23.252Z,99.90
2023-07-08T06:15:51.140Z,99.90
2023-07-08T06:18:20.353Z,99.90
2023-07-08T06:20:53.526Z,99.90
2023-07-08T06:23:21.378Z,99.90
2023-07-08T06:25:49.254Z,99.90
2023-07-08T06:28:17.141Z,99.90
2023-07-08T06:30:45.363Z,99.90
2023-07-08T06:33:13.455Z,99.90
2023-07-08T06:35:42.864Z,99.90
2023-07-08T06:38:10.758Z,99.90
2023-07-08T06:40:38.660Z,99.90
2023-07-08T06:43:06.490Z,99.90
2023-07-08T06:45:34.393Z,99.90
2023-07-08T06:48:02.404Z,99.90
2023-07-08T06:50:30.317Z,99.90
2023-07-08T06:52:59.517Z,99.90
2023-07-08T06:55:27.399Z,99.90
2023-07-08T06:57:55.347Z,99.90
2023-07-08T07:00:23.210Z,99.90
2023-07-08T07:02:51.064Z,99.90
2023-07-08T07:05:21.549Z,99.90
2023-07-08T07:07:51.004Z,99.90
2023-07-08T07:10:20.287Z,99.90
2023-07-08T07:12:48.081Z,99.90
2023-07-08T07:15:16.071Z,99.90
2023-07-08T07:17:43.948Z,99.90
2023-07-08T07:20:12.508Z,99.90
2023-07-08T07:22:40.377Z,99.90
2023-07-08T07:25:08.769Z,99.90
2023-07-08T07:27:37.917Z,99.90
2023-07-08T07:30:06.527Z,99.90
2023-07-08T07:32:36.286Z,99.90
2023-07-08T07:35:04.533Z,99.90
2023-07-08T07:37:32.325Z,99.90
2023-07-08T07:40:00.094Z,99.90
2023-07-08T07:42:28.996Z,99.90
2023-07-08T07:44:58.104Z,99.90
2023-07-08T07:47:27.694Z,99.90
2023-07-08T07:49:56.783Z,99.90
2023-07-08T07:52:25.322Z,99.90
2023-07-08T07:54:54.841Z,99.90
2023-07-08T07:57:22.696Z,99.90
2023-07-08T07:59:50.794Z,99.90
2023-07-08T08:02:20.063Z,99.90
2023-07-08T08:04:48.291Z,99.90
2023-07-08T08:07:16.069Z,99.80
2023-07-08T08:09:43.855Z,99.90
2023-07-08T08:12:12.570Z,99.90
2023-07-08T08:14:40.452Z,99.90
2023-07-08T08:17:08.336Z,99.90
2023-07-08T08:19:37.506Z,99.90
2023-07-08T08:22:05.852Z,99.90
2023-07-08T08:24:33.748Z,99.90
2023-07-08T08:27:01.533Z,99.90
2023-07-08T08:29:29.375Z,99.90
2023-07-08T08:31:57.171Z,99.90
2023-07-08T08:34:25.015Z,99.90
2023-07-08T08:36:56.666Z,99.90
2023-07-08T08:39:25.594Z,99.90
2023-07-08T08:41:54.552Z,99.90
2023-07-08T08:44:26.080Z,99.90
2023-07-08T08:46:56.256Z,99.90
2023-07-08T08:49:26.796Z,99.70
2023-07-08T08:51:55.962Z,98.90
2023-07-08T08:54:23.801Z,99.90
2023-07-08T08:56:56.681Z,99.90
2023-07-08T08:59:29.342Z,98.40
2023-07-08T09:01:57.629Z,96.60
2023-07-08T09:04:27.472Z,97.10
2023-07-08T09:07:00.563Z,95.30
2023-07-08T09:09:31.782Z,93.80
2023-07-08T09:12:02.132Z,94.20
2023-07-08T09:14:30.732Z,91.30
2023-07-08T09:17:00.975Z,91.80
2023-07-08T09:19:32.059Z,93.50
2023-07-08T09:22:03.530Z,91.80
2023-07-08T09:24:34.056Z,90.60
2023-07-08T09:27:02.909Z,90.90
2023-07-08T09:29:30.796Z,90.50
2023-07-08T09:31:59.072Z,91.20
2023-07-08T09:34:38.677Z,90.00
2023-07-08T09:37:16.039Z,89.80
2023-07-08T09:39:43.906Z,90.30
2023-07-08T09:42:11.748Z,90.90
2023-07-08T09:44:39.562Z,88.60
2023-07-08T09:47:20.094Z,89.70
2023-07-08T09:49:48.803Z,89.00
2023-07-08T09:52:18.304Z,90.90
2023-07-08T09:54:46.980Z,90.90
2023-07-08T09:57:28.920Z,87.40
2023-07-08T09:59:59.583Z,90.80
2023-07-08T10:02:30.046Z,88.90
2023-07-08T10:04:58.865Z,90.30
2023-07-08T10:07:29.675Z,89.70
2023-07-08T10:09:58.020Z,89.70
2023-07-08T10:12:25.903Z,87.70
2023-07-08T10:14:55.901Z,90.10
2023-07-08T10:17:23.731Z,86.70
2023-07-08T10:19:51.671Z,85.90
2023-07-08T10:22:32.117Z,86.20
2023-07-08T10:25:17.284Z,86.10
2023-07-08T10:27:49.463Z,87.20
2023-07-08T10:30:22.020Z,87.10
2023-07-08T10:33:16.646Z,86.40
2023-07-08T10:35:47.291Z,86.80
2023-07-08T10:38:30.994Z,87.40
2023-07-08T10:41:01.338Z,89.40
2023-07-08T10:43:37.367Z,91.10
2023-07-08T10:46:12.870Z,86.20
2023-07-08T10:48:51.723Z,85.80
2023-07-08T10:51:22.758Z,88.00
2023-07-08T10:54:04.325Z,85.40
2023-07-08T10:56:37.259Z,82.50
2023-07-08T10:59:19.493Z,82.30
2023-07-08T11:02:03.332Z,84.00
2023-07-08T11:04:52.805Z,81.10
2023-07-08T11:07:29.276Z,84.70
2023-07-08T11:10:00.224Z,80.60
2023-07-08T11:12:29.543Z,83.30
2023-07-08T11:15:01.681Z,80.50
2023-07-08T11:17:31.271Z,81.20
2023-07-08T11:20:01.427Z,76.70
2023-07-08T11:22:29.309Z,76.10
2023-07-08T11:24:58.437Z,78.70
2023-07-08T11:27:28.709Z,76.50
2023-07-08T11:29:57.538Z,74.10
2023-07-08T11:32:28.187Z,77.40
2023-07-08T11:34:56.166Z,73.40
2023-07-08T11:37:24.043Z,72.00
2023-07-08T11:40:00.341Z,76.60
2023-07-08T11:42:34.071Z,72.00
2023-07-08T11:45:01.966Z,74.70
2023-07-08T11:47:35.361Z,74.10
2023-07-08T11:50:03.256Z,71.90
2023-07-08T11:52:31.325Z,74.30
2023-07-08T11:55:04.459Z,74.00
2023-07-08T11:57:33.063Z,70.30
2023-07-08T12:00:23.945Z,75.00
2023-07-08T12:02:54.574Z,68.70
2023-07-08T12:05:32.190Z,69.40
2023-07-08T12:08:02.028Z,67.20
2023-07-08T12:10:37.154Z,69.50
2023-07-08T12:13:05.187Z,68.60
2023-07-08T12:15:34.273Z,67.10
2023-07-08T12:18:04.196Z,71.60
2023-07-08T12:20:33.992Z,66.90
2023-07-08T12:23:01.966Z,66.90
2023-07-08T12:25:33.392Z,64.20
2023-07-08T12:28:02.511Z,64.60
2023-07-08T12:30:31.156Z,65.50
2023-07-08T12:33:00.499Z,63.60
2023-07-08T12:35:31.138Z,64.00
2023-07-08T12:38:01.100Z,62.90
2023-07-08T12:40:31.104Z,64.20
2023-07-08T12:43:01.064Z,64.50
2023-07-08T12:45:29.654Z,62.60
2023-07-08T12:47:57.631Z,62.10
2023-07-08T12:50:25.613Z,61.50
2023-07-08T12:52:53.499Z,64.30
2023-07-08T12:55:22.297Z,61.90
2023-07-08T12:57:52.884Z,61.10
2023-07-08T13:00:25.167Z,61.40
2023-07-08T13:02:57.835Z,59.10
2023-07-08T13:05:25.965Z,59.40
2023-07-08T13:07:54.008Z,58.40
2023-07-08T13:10:22.556Z,58.10
2023-07-08T13:12:54.624Z,58.20
2023-07-08T13:15:25.320Z,59.60
2023-07-08T13:17:53.348Z,58.60
2023-07-08T13:20:21.284Z,58.80
2023-07-08T13:22:53.468Z,59.20
2023-07-08T13:25:22.796Z,59.50
2023-07-08T13:27:59.514Z,59.10
2023-07-08T13:30:28.899Z,61.60
2023-07-08T13:32:57.004Z,57.60
2023-07-08T13:35:26.476Z,57.60
2023-07-08T13:37:54.500Z,57.80
2023-07-08T13:40:22.491Z,57.00
2023-07-08T13:42:51.822Z,56.70
2023-07-08T13:45:26.044Z,54.40
2023-07-08T13:48:04.762Z,54.20
2023-07-08T13:50:37.909Z,55.20
2023-07-08T13:53:15.172Z,55.60
2023-07-08T13:55:43.330Z,55.40
2023-07-08T13:58:16.794Z,55.30
2023-07-08T14:00:45.989Z,56.40
2023-07-08T14:03:14.038Z,56.30
2023-07-08T14:05:41.944Z,56.20
2023-07-08T14:08:14.673Z,56.00
2023-07-08T14:10:42.497Z,55.00
2023-07-08T14:13:11.676Z,55.60
2023-07-08T14:15:39.649Z,56.50
2023-07-08T14:18:10.602Z,55.70
2023-07-08T14:20:38.526Z,56.20
2023-07-08T14:23:06.352Z,56.20
2023-07-08T14:25:34.206Z,55.80
2023-07-08T14:28:03.701Z,55.00
2023-07-08T14:30:31.550Z,55.70
2023-07-08T14:32:59.478Z,55.90
2023-07-08T14:35:29.927Z,56.70
2023-07-08T14:37:58.744Z,56.20
2023-07-08T14:40:28.200Z,57.40
2023-07-08T14:43:00.725Z,56.20
2023-07-08T14:45:30.407Z,57.20
2023-07-08T14:47:58.381Z,57.00
2023-07-08T14:50:30.467Z,58.50
2023-07-08T14:52:59.694Z,56.50
2023-07-08T14:55:27.545Z,56.70
2023-07-08T14:57:56.529Z,57.40
2023-07-08T15:00:24.692Z,55.80
2023-07-08T15:02:53.353Z,54.80
2023-07-08T15:05:25.004Z,54.40
2023-07-08T15:07:53.304Z,53.00
2023-07-08T15:10:23.072Z,53.20
2023-07-08T15:12:50.962Z,53.70
2023-07-08T15:15:20.345Z,54.20
2023-07-08T15:17:49.575Z,55.00
2023-07-08T15:20:17.904Z,55.40
2023-07-08T15:22:45.891Z,55.50
2023-07-08T15:25:14.044Z,55.50
2023-07-08T15:27:46.814Z,53.60
2023-07-08T15:30:21.998Z,54.30
2023-07-08T15:32:50.112Z,53.40
2023-07-08T15:35:19.843Z,52.80
2023-07-08T15:37:47.907Z,53.90
2023-07-08T15:40:16.701Z,53.90
2023-07-08T15:42:47.423Z,53.60
2023-07-08T15:45:16.863Z,53.60
2023-07-08T15:47:44.797Z,52.80
2023-07-08T15:50:14.209Z,53.90
2023-07-08T15:52:42.208Z,54.10
2023-07-08T15:55:10.453Z,54.50
2023-07-08T15:57:48.299Z,55.20
2023-07-08T16:00:21.886Z,54.30
2023-07-08T16:02:51.427Z,56.00
2023-07-08T16:05:20.197Z,55.90
2023-07-08T16:07:48.394Z,56.60
2023-07-08T16:10:16.548Z,55.90
2023-07-08T16:12:44.460Z,56.30
2023-07-08T16:15:15.747Z,55.60
2023-07-08T16:17:45.051Z,57.40
2023-07-08T16:20:18.623Z,57.60
2023-07-08T16:22:47.089Z,58.20
2023-07-08T16:25:15.590Z,58.40
2023-07-08T16:27:43.839Z,58.70
2023-07-08T16:30:14.722Z,58.80
2023-07-08T16:32:44.116Z,59.10
2023-07-08T16:35:12.636Z,59.20
2023-07-08T16:37:40.487Z,59.30
2023-07-08T16:40:11.205Z,60.30
2023-07-08T16:42:46.164Z,60.30
2023-07-08T16:45:15.365Z,60.20
2023-07-08T16:47:45.039Z,60.20
2023-07-08T16:50:13.019Z,60.60
2023-07-08T16:52:40.876Z,61.10
2023-07-08T16:55:12.391Z,61.10
2023-07-08T16:57:40.314Z,64.00
2023-07-08T17:00:09.130Z,64.30
2023-07-08T17:02:37.086Z,64.70
2023-07-08T17:05:14.231Z,66.30
2023-07-08T17:07:42.699Z,66.90
2023-07-08T17:10:11.817Z,67.70
2023-07-08T17:12:39.700Z,67.70
2023-07-08T17:15:09.177Z,68.20
2023-07-08T17:17:37.189Z,68.00
2023-07-08T17:20:17.370Z,68.20
2023-07-08T17:22:45.990Z,68.60
2023-07-08T17:25:18.219Z,69.70
2023-07-08T17:27:46.066Z,69.90
2023-07-08T17:30:15.108Z,70.70
2023-07-08T17:32:43.550Z,70.40
2023-07-08T17:35:15.014Z,69.00
2023-07-08T17:37:42.937Z,70.50
2023-07-08T17:40:20.364Z,71.80
2023-07-08T17:42:48.711Z,72.80
2023-07-08T17:45:18.707Z,73.40
2023-07-08T17:47:46.727Z,73.40
2023-07-08T17:50:17.682Z,74.30
2023-07-08T17:52:45.623Z,74.30
2023-07-08T17:55:13.679Z,74.70
2023-07-08T17:57:41.696Z,75.00
2023-07-08T18:00:14.950Z,74.70
2023-07-08T18:02:42.899Z,73.40
2023-07-08T18:05:16.635Z,72.90
2023-07-08T18:07:45.521Z,72.90
2023-07-08T18:10:13.405Z,72.60
2023-07-08T18:12:41.234Z,72.80
2023-07-08T18:15:17.477Z,72.70
2023-07-08T18:17:45.473Z,72.30
2023-07-08T18:20:13.827Z,71.90
2023-07-08T18:22:44.897Z,69.90
2023-07-08T18:25:15.612Z,70.40
2023-07-08T18:27:43.676Z,70.80
2023-07-08T18:30:13.254Z,70.20
2023-07-08T18:32:41.097Z,70.00
2023-07-08T18:35:19.104Z,69.90
2023-07-08T18:37:48.402Z,73.30
2023-07-08T18:40:17.361Z,71.20
2023-07-08T18:42:49.947Z,70.90
2023-07-08T18:45:19.316Z,71.60
2023-07-08T18:47:47.165Z,69.90
2023-07-08T18:50:15.282Z,70.30
2023-07-08T18:52:43.267Z,71.70
2023-07-08T18:55:16.771Z,70.20
2023-07-08T18:57:44.624Z,70.40
2023-07-08T19:00:14.063Z,72.40
2023-07-08T19:02:52.262Z,71.70
2023-07-08T19:05:20.498Z,75.10
2023-07-08T19:07:48.412Z,77.70
2023-07-08T19:10:18.160Z,77.50
2023-07-08T19:12:46.287Z,78.40
2023-07-08T19:15:18.845Z,81.10
2023-07-08T19:17:46.827Z,81.30
2023-07-08T19:20:15.040Z,78.90
2023-07-08T19:22:42.889Z,77.60
2023-07-08T19:25:21.443Z,78.40
2023-07-08T19:27:49.444Z,77.10
2023-07-08T19:30:17.726Z,76.50
2023-07-08T19:32:49.606Z,75.60
2023-07-08T19:35:18.512Z,75.20
2023-07-08T19:37:46.499Z,75.20
2023-07-08T19:40:15.668Z,75.40
2023-07-08T19:42:45.481Z,76.40
2023-07-08T19:45:18.437Z,77.90
2023-07-08T19:47:46.393Z,79.00
2023-07-08T19:50:14.778Z,77.30
2023-07-08T19:52:42.700Z,77.00
2023-07-08T19:55:11.076Z,77.70
2023-07-08T19:57:47.783Z,77.90
2023-07-08T20:00:24.694Z,81.90
2023-07-08T20:02:53.955Z,86.20
2023-07-08T20:05:22.426Z,88.20
2023-07-08T20:07:50.269Z,90.50
2023-07-08T20:10:18.894Z,91.20
2023-07-08T20:12:48.061Z,91.70
2023-07-08T20:15:16.089Z,92.20
2023-07-08T20:17:43.937Z,92.80
2023-07-08T20:20:21.822Z,93.30
2023-07-08T20:22:49.810Z,93.80
2023-07-08T20:25:18.104Z,93.80
2023-07-08T20:27:46.306Z,94.20
2023-07-08T20:30:21.268Z,94.30
2023-07-08T20:32:49.322Z,94.40
2023-07-08T20:35:17.532Z,94.90
2023-07-08T20:37:45.645Z,95.60
2023-07-08T20:40:20.530Z,96.90
2023-07-08T20:42:48.358Z,97.30
2023-07-08T20:45:16.538Z,96.80
2023-07-08T20:47:48.011Z,97.70
2023-07-08T20:50:17.216Z,98.30
2023-07-08T20:52:45.115Z,98.70
2023-07-08T20:55:14.206Z,99.30
2023-07-08T20:57:42.832Z,99.60
2023-07-08T21:00:25.510Z,99.90
2023-07-08T21:02:54.846Z,99.90
2023-07-08T21:05:25.615Z,99.90
2023-07-08T21:07:54.479Z,99.90
2023-07-08T21:10:23.983Z,99.90
2023-07-08T21:12:51.999Z,99.90
2023-07-08T21:15:21.090Z,99.90
2023-07-08T21:17:48.994Z,99.90
2023-07-08T21:20:19.499Z,99.90
2023-07-08T21:22:47.489Z,99.90
2023-07-08T21:25:16.664Z,99.90
2023-07-08T21:27:44.616Z,99.90
2023-07-08T21:30:19.668Z,99.90
2023-07-08T21:32:48.026Z,99.90
2023-07-08T21:35:16.357Z,99.90
2023-07-08T21:37:48.905Z,99.90
2023-07-08T21:40:24.708Z,99.90
2023-07-08T21:42:52.534Z,99.90
2023-07-08T21:45:25.951Z,99.90
2023-07-08T21:47:53.858Z,99.90
2023-07-08T21:50:21.798Z,99.90
2023-07-08T21:52:51.048Z,99.90
2023-07-08T21:55:19.633Z,99.90
2023-07-08T21:57:47.544Z,99.90
2023-07-08T22:00:17.844Z,99.90
2023-07-08T22:02:48.236Z,99.90
2023-07-08T22:05:16.686Z,99.90
2023-07-08T22:07:44.574Z,99.90
2023-07-08T22:10:17.490Z,99.90
2023-07-08T22:12:45.736Z,99.90
2023-07-08T22:15:18.763Z,99.90
2023-07-08T22:17:46.840Z,99.90
2023-07-08T22:20:15.168Z,99.90
2023-07-08T22:22:43.351Z,99.90
2023-07-08T22:25:19.195Z,99.90
2023-07-08T22:27:47.242Z,99.90
2023-07-08T22:30:15.609Z,99.90
2023-07-08T22:32:43.828Z,99.90
2023-07-08T22:35:19.748Z,99.90
2023-07-08T22:37:47.785Z,99.90
2023-07-08T22:40:15.836Z,99.90
2023-07-08T22:42:45.206Z,99.90
2023-07-08T22:45:17.587Z,99.90
2023-07-08T22:47:48.587Z,99.90
2023-07-08T22:50:16.745Z,99.90
2023-07-08T22:52:46.427Z,99.90
2023-07-08T22:55:16.415Z,99.90
2023-07-08T22:57:46.664Z,99.90
2023-07-08T23:00:19.067Z,99.90
2023-07-08T23:02:47.160Z,99.90
2023-07-08T23:05:15.197Z,99.90
2023-07-08T23:07:43.076Z,99.90
2023-07-08T23:10:13.133Z,99.90
2023-07-08T23:12:40.980Z,99.90
2023-07-08T23:15:11.152Z,99.90
2023-07-08T23:17:41.178Z,99.90
2023-07-08T23:20:14.698Z,99.90
2023-07-08T23:22:43.088Z,99.90
2023-07-08T23:25:11.302Z,99.90
2023-07-08T23:27:39.771Z,99.90
2023-07-08T23:30:11.742Z,99.90
2023-07-08T23:32:39.634Z,99.90
2023-07-08T23:35:08.289Z,99.90
2023-07-08T23:37:36.139Z,99.90
2023-07-08T23:40:04.021Z,99.90
2023-07-08T23:42:31.892Z,99.90
2023-07-08T23:44:59.681Z,99.90
2023-07-08T23:47:28.866Z,99.90
2023-07-08T23:49:56.709Z,99.90
2023-07-08T23:52:25.153Z,99.90
2023-07-08T23:54:52.962Z,99.90
2023-07-08T23:57:21.576Z,99.90
2023-07-08T23:59:51.600Z,99.90
